createdAt,value
2023-05-22T00:01:57.119Z,99.90
2023-05-22T00:06:59.496Z,99.90
2023-05-22T00:12:01.591Z,99.90
2023-05-22T00:17:04.320Z,99.90
2023-05-22T00:22:06.711Z,99.90
2023-05-22T00:27:08.752Z,99.90
2023-05-22T00:32:10.836Z,99.90
2023-05-22T00:37:12.923Z,99.90
2023-05-22T00:42:15.120Z,99.90
2023-05-22T00:47:17.246Z,99.90
2023-05-22T00:52:19.912Z,99.90
2023-05-22T00:57:23.480Z,99.90
2023-05-22T01:02:25.554Z,99.90
2023-05-22T01:07:27.736Z,99.90
2023-05-22T01:12:29.776Z,99.90
2023-05-22T01:17:41.922Z,99.90
2023-05-22T01:23:13.817Z,99.90
2023-05-22T01:28:31.102Z,99.90
2023-05-22T01:33:41.985Z,99.90
2023-05-22T01:38:44.307Z,99.90
2023-05-22T01:43:46.651Z,99.90
2023-05-22T01:48:48.702Z,99.90
2023-05-22T01:54:18.406Z,99.90
2023-05-22T01:59:31.002Z,99.90
2023-05-22T02:04:37.892Z,99.90
2023-05-22T02:10:00.390Z,99.90
2023-05-22T02:15:03.491Z,99.90
2023-05-22T02:20:07.692Z,99.90
2023-05-22T02:25:17.566Z,99.90
2023-05-22T02:30:20.746Z,99.90
2023-05-22T02:35:25.680Z,99.90
2023-05-22T02:40:27.994Z,99.90
2023-05-22T02:45:30.376Z,99.90
2023-05-22T02:50:32.633Z,99.90
2023-05-22T02:55:34.919Z,99.90
2023-05-22T03:00:38.355Z,99.90
2023-05-22T03:05:40.631Z,99.90
2023-05-22T03:10:43.493Z,99.90
2023-05-22T03:15:45.560Z,99.90
2023-05-22T03:20:50.809Z,99.90
2023-05-22T03:25:53.101Z,99.90
2023-05-22T03:30:56.298Z,99.90
2023-05-22T03:36:03.753Z,99.90
2023-05-22T03:41:05.949Z,99.90
2023-05-22T03:46:08.141Z,99.90
2023-05-22T03:51:10.290Z,99.90
2023-05-22T03:56:12.416Z,99.90
2023-05-22T04:01:14.519Z,99.90
2023-05-22T04:06:17.814Z,99.90
2023-05-22T04:11:22.336Z,99.90
2023-05-22T04:16:24.445Z,99.90
2023-05-22T04:21:26.622Z,99.90
2023-05-22T04:26:32.383Z,99.90
2023-05-22T04:31:34.579Z,99.90
2023-05-22T04:36:36.801Z,99.90
2023-05-22T04:41:39.229Z,99.90
2023-05-22T04:46:42.490Z,99.90
2023-05-22T04:51:44.757Z,99.90
2023-05-22T04:57:05.882Z,99.90
2023-05-22T05:02:26.858Z,99.90
2023-05-22T05:07:29.609Z,99.90
2023-05-22T05:12:32.622Z,99.90
2023-05-22T05:17:34.778Z,99.90
2023-05-22T05:22:37.600Z,99.90
2023-05-22T05:27:41.147Z,99.90
2023-05-22T05:32:44.564Z,99.90
2023-05-22T05:38:01.834Z,99.90
2023-05-22T05:43:06.646Z,99.90
2023-05-22T05:48:12.206Z,99.90
2023-05-22T05:53:18.233Z,99.90
2023-05-22T05:58:25.980Z,99.90
2023-05-22T06:04:04.439Z,99.90
2023-05-22T06:09:10.284Z,99.90
2023-05-22T06:14:42.232Z,99.90
2023-05-22T06:19:44.369Z,99.90
2023-05-22T06:24:47.305Z,99.90
2023-05-22T06:29:55.263Z,99.90
2023-05-22T06:35:03.634Z,99.90
2023-05-22T06:40:07.698Z,99.90
2023-05-22T06:45:19.941Z,99.90
2023-05-22T06:50:42.446Z,99.90
2023-05-22T06:55:44.636Z,99.90
2023-05-22T07:00:55.495Z,99.90
2023-05-22T07:06:06.413Z,99.90
2023-05-22T07:11:09.387Z,99.90
2023-05-22T07:16:12.297Z,99.90
2023-05-22T07:21:14.596Z,99.90
2023-05-22T07:26:18.888Z,99.90
2023-05-22T07:31:31.779Z,99.90
2023-05-22T07:36:35.136Z,99.90
2023-05-22T07:41:38.890Z,99.90
2023-05-22T07:46:43.852Z,99.90
2023-05-22T07:51:50.181Z,99.90
2023-05-22T07:56:56.359Z,99.90
2023-05-22T08:02:00.117Z,99.90
2023-05-22T08:07:02.746Z,99.90
2023-05-22T08:12:05.111Z,99.90
2023-05-22T08:17:09.921Z,99.90
2023-05-22T08:22:12.080Z,99.90
2023-05-22T08:27:14.115Z,99.90
2023-05-22T08:32:16.326Z,99.90
2023-05-22T08:37:18.639Z,99.90
2023-05-22T08:42:20.835Z,99.90
2023-05-22T08:47:26.203Z,99.90
2023-05-22T08:52:52.655Z,99.90
2023-05-22T08:57:57.169Z,99.90
2023-05-22T09:02:59.764Z,99.90
2023-05-22T09:08:15.927Z,99.90
2023-05-22T09:13:29.550Z,99.90
2023-05-22T09:18:32.324Z,99.90
2023-05-22T09:23:34.958Z,99.90
2023-05-22T09:28:37.779Z,99.90
2023-05-22T09:33:40.003Z,99.90
2023-05-22T09:38:42.305Z,99.90
2023-05-22T09:43:51.093Z,99.90
2023-05-22T09:48:53.845Z,99.90
2023-05-22T09:54:06.931Z,99.90
2023-05-22T09:59:10.037Z,99.90
2023-05-22T10:04:14.543Z,99.90
2023-05-22T10:09:19.469Z,99.90
2023-05-22T10:14:23.375Z,99.90
2023-05-22T10:19:27.977Z,99.90
2023-05-22T10:24:30.811Z,99.90
2023-05-22T10:29:40.692Z,99.90
2023-05-22T10:35:19.983Z,99.90
2023-05-22T10:40:31.718Z,99.90
2023-05-22T10:45:34.088Z,99.90
2023-05-22T10:50:36.704Z,99.90
2023-05-22T10:55:48.368Z,99.90
2023-05-22T11:00:55.978Z,99.90
2023-05-22T11:05:58.094Z,99.90
2023-05-22T11:11:11.522Z,99.90
2023-05-22T11:16:16.570Z,99.90
2023-05-22T11:21:18.869Z,99.90
2023-05-22T11:26:23.052Z,99.90
2023-05-22T11:31:27.066Z,99.90
2023-05-22T11:36:29.758Z,99.90
2023-05-22T11:41:34.162Z,99.90
2023-05-22T11:46:36.447Z,99.90
2023-05-22T11:51:40.479Z,99.90
2023-05-22T11:56:42.508Z,99.90
2023-05-22T12:01:44.589Z,99.90
2023-05-22T12:06:46.740Z,99.90
2023-05-22T12:11:49.232Z,99.90
2023-05-22T12:16:52.638Z,99.90
2023-05-22T12:21:55.241Z,99.90
2023-05-22T12:26:57.432Z,99.90
2023-05-22T12:32:04.316Z,99.90
2023-05-22T12:37:22.028Z,99.90
2023-05-22T15:09:47.355Z,99.90
2023-05-22T15:14:49.797Z,99.90
2023-05-22T15:19:51.853Z,99.90
2023-05-22T15:25:07.927Z,99.90
2023-05-22T15:30:10.483Z,99.90
2023-05-22T15:35:15.356Z,95.90
2023-05-22T15:40:22.684Z,93.70
2023-05-22T15:45:24.877Z,90.80
2023-05-22T15:50:27.057Z,83.50
2023-05-22T15:55:29.256Z,79.40
2023-05-22T16:00:31.297Z,75.20
2023-05-22T16:05:34.998Z,71.70
2023-05-22T16:10:37.557Z,62.20
2023-05-22T16:15:41.245Z,62.20
2023-05-22T16:20:43.585Z,61.00
2023-05-22T16:25:46.319Z,59.20
2023-05-22T16:30:48.599Z,57.00
2023-05-22T16:35:50.861Z,57.60
2023-05-22T16:40:55.171Z,57.60
2023-05-22T16:45:57.357Z,58.70
2023-05-22T16:50:59.449Z,59.90
2023-05-22T16:56:01.676Z,59.70
2023-05-22T17:01:06.384Z,62.00
2023-05-22T17:06:09.115Z,65.70
2023-05-22T17:11:11.483Z,65.40
2023-05-22T17:16:13.967Z,66.00
2023-05-22T17:21:17.606Z,65.20
2023-05-22T17:26:19.693Z,66.90
2023-05-22T17:31:23.054Z,68.70
2023-05-22T17:36:28.940Z,70.10
2023-05-22T17:41:31.233Z,72.60
2023-05-22T17:46:33.521Z,76.40
2023-05-22T17:51:35.591Z,80.70
2023-05-22T17:56:37.717Z,92.70
2023-05-22T18:01:39.902Z,99.90
2023-05-22T18:06:42.309Z,99.90
2023-05-22T18:11:44.416Z,99.90
2023-05-22T18:16:46.754Z,99.90
2023-05-22T18:21:48.832Z,99.90
2023-05-22T18:26:50.984Z,99.90
2023-05-22T18:31:53.175Z,99.90
2023-05-22T18:36:55.459Z,99.90
2023-05-22T18:42:00.498Z,99.90
2023-05-22T18:47:02.805Z,99.90
2023-05-22T18:52:05.194Z,99.90
2023-05-22T18:57:07.364Z,99.90
2023-05-22T19:02:09.486Z,99.90
2023-05-22T19:07:11.614Z,99.90
2023-05-22T19:12:13.850Z,99.90
2023-05-22T19:17:16.751Z,99.90
2023-05-22T19:22:18.919Z,99.90
2023-05-22T19:27:20.984Z,99.90
2023-05-22T19:32:23.135Z,99.90
2023-05-22T19:37:25.306Z,99.90
2023-05-22T19:42:27.384Z,99.90
2023-05-22T19:47:29.589Z,99.90
2023-05-22T19:52:31.707Z,99.90
2023-05-22T19:57:33.827Z,99.90
2023-05-22T20:02:36.458Z,99.90
2023-05-22T20:07:39.525Z,99.90
2023-05-22T20:12:41.761Z,99.90
2023-05-22T20:17:47.936Z,99.90
2023-05-22T20:22:51.739Z,99.90
2023-05-22T20:27:53.801Z,99.90
2023-05-22T20:32:56.000Z,99.90
2023-05-22T20:38:04.533Z,99.90
2023-05-22T20:43:06.792Z,99.90
2023-05-22T20:48:08.885Z,99.90
2023-05-22T20:53:11.394Z,99.90
2023-05-22T20:58:14.815Z,99.90
2023-05-22T21:03:17.894Z,99.90
2023-05-22T21:08:21.356Z,99.90
2023-05-22T21:13:23.386Z,99.90
2023-05-22T21:18:25.648Z,99.90
2023-05-22T21:23:27.829Z,99.90
2023-05-22T21:28:30.200Z,99.90
2023-05-22T21:33:32.330Z,99.90
2023-05-22T21:38:34.717Z,99.90
2023-05-22T21:43:36.828Z,99.90
2023-05-22T21:48:39.040Z,99.90
2023-05-22T21:53:41.792Z,99.90
2023-05-22T21:58:43.829Z,99.90
2023-05-22T22:03:45.985Z,99.90
2023-05-22T22:08:48.221Z,99.90
2023-05-22T22:13:50.416Z,99.90
2023-05-22T22:18:52.713Z,99.90
2023-05-22T22:23:55.205Z,99.90
2023-05-22T22:28:57.813Z,99.90
2023-05-22T22:33:59.891Z,99.90
2023-05-22T22:39:02.207Z,99.90
2023-05-22T22:44:04.324Z,99.90
2023-05-22T22:49:07.225Z,99.90
2023-05-22T22:54:09.473Z,99.90
2023-05-22T22:59:11.801Z,99.90
2023-05-22T23:04:14.366Z,99.90
2023-05-22T23:09:16.677Z,99.90
2023-05-22T23:14:20.477Z,99.90
2023-05-22T23:19:22.726Z,99.90
2023-05-22T23:24:24.814Z,99.90
2023-05-22T23:29:27.070Z,99.90
2023-05-22T23:34:29.142Z,99.90
2023-05-22T23:39:31.229Z,99.90
2023-05-22T23:44:33.357Z,99.90
2023-05-22T23:49:35.463Z,99.90
2023-05-22T23:54:37.548Z,99.90
2023-05-22T23:59:40.589Z,99.90
